Time;durP1;ratioP1;P1;durP2;ratioP2;P2;SDS_P1;SDS_P2;PMS_P1;PMS_P2;Temp;Humidity;BMP_temperature;BMP_pressure;BME280_temperature;BME280_humidity;BME280_pressure;Samples;Min_cycle;Max_cycle;Signal;HPM_P1;HPM_P2
2021/12/19 00:00:32;;;;;;;19.05;6.22;;;6.60;99.90;;;;;;5069041;28;20262;-65
2021/12/19 00:03:06;;;;;;;19.50;8.90;;;6.60;99.90;;;;;;5065612;28;20021;-65
2021/12/19 00:11:12;;;;;;;22.30;7.85;;;6.60;99.90;;;;;;5055759;28;20906;-66
2021/12/19 00:13:40;;;;;;;17.17;9.68;;;6.60;99.90;;;;;;5069554;28;20064;-66
2021/12/19 00:16:06;;;;;;;25.40;7.47;;;6.60;99.90;;;;;;5065954;28;20476;-65
2021/12/19 00:18:32;;;;;;;24.13;7.07;;;6.60;99.90;;;;;;5073760;28;20159;-65
2021/12/19 00:20:57;;;;;;;14.85;6.80;;;6.60;99.90;;;;;;5070947;28;20111;-66
2021/12/19 00:23:23;;;;;;;24.77;8.32;;;6.60;99.90;;;;;;5073938;28;20029;-66
2021/12/19 00:25:49;;;;;;;26.05;7.63;;;6.60;99.90;;;;;;5069965;28;20024;-65
2021/12/19 00:28:15;;;;;;;29.27;8.15;;;6.70;99.90;;;;;;5071148;28;20676;-65
2021/12/19 00:30:41;;;;;;;25.90;10.57;;;6.70;99.90;;;;;;5077757;28;20056;-66
2021/12/19 00:33:07;;;;;;;24.73;9.15;;;6.60;99.90;;;;;;5070159;28;20029;-66
2021/12/19 00:35:32;;;;;;;21.02;7.55;;;6.60;99.90;;;;;;5064669;28;20033;-66
2021/12/19 00:37:58;;;;;;;27.35;8.85;;;6.70;99.90;;;;;;5069840;28;20034;-65
2021/12/19 00:40:24;;;;;;;24.63;8.23;;;6.70;99.90;;;;;;5075435;28;20081;-65
2021/12/19 00:43:02;;;;;;;26.65;10.02;;;6.60;99.90;;;;;;5070874;28;20023;-66
2021/12/19 00:45:33;;;;;;;10.15;3.75;;;6.70;99.90;;;;;;5074189;28;20024;-66
2021/12/19 00:48:02;;;;;;;16.45;8.45;;;6.70;99.90;;;;;;5071118;28;20040;-66
2021/12/19 00:50:30;;;;;;;15.80;6.35;;;6.70;99.90;;;;;;5071293;28;20024;-66
2021/12/19 00:52:57;;;;;;;20.98;7.20;;;6.70;99.90;;;;;;5067517;28;20032;-65
2021/12/19 00:55:27;;;;;;;22.88;9.52;;;6.70;99.90;;;;;;5071113;28;20032;-65
2021/12/19 00:57:54;;;;;;;23.75;7.18;;;6.70;99.90;;;;;;5071916;28;20102;-66
2021/12/19 01:00:23;;;;;;;16.73;6.65;;;6.70;99.90;;;;;;5079722;28;20029;-66
2021/12/19 01:02:54;;;;;;;19.77;9.40;;;6.70;99.90;;;;;;5077240;28;20029;-66
2021/12/19 01:05:19;;;;;;;23.33;7.80;;;6.70;99.90;;;;;;5076688;28;20020;-66
2021/12/19 01:07:45;;;;;;;20.25;7.65;;;6.80;99.90;;;;;;5073182;28;20082;-66
2021/12/19 01:10:11;;;;;;;15.65;6.55;;;6.70;99.90;;;;;;5070864;28;20064;-66
2021/12/19 01:12:38;;;;;;;23.25;8.63;;;6.80;99.90;;;;;;5076274;28;20020;-66
2021/12/19 01:15:10;;;;;;;15.05;5.78;;;6.70;99.90;;;;;;5071624;28;20060;-66
2021/12/19 01:17:35;;;;;;;15.48;6.88;;;6.70;99.90;;;;;;5069113;28;20415;-66
2021/12/19 01:20:07;;;;;;;15.15;5.72;;;6.70;99.90;;;;;;5076343;28;20063;-66
2021/12/19 01:22:32;;;;;;;21.10;7.35;;;6.70;99.90;;;;;;5072317;28;20045;-66
2021/12/19 01:24:58;;;;;;;16.75;4.63;;;6.70;99.90;;;;;;5070738;28;20013;-66
2021/12/19 01:27:23;;;;;;;15.32;6.40;;;6.70;99.90;;;;;;5070997;28;20422;-65
2021/12/19 01:29:49;;;;;;;13.48;6.32;;;6.60;99.90;;;;;;5069777;28;20020;-65
2021/12/19 01:32:15;;;;;;;12.80;4.65;;;6.60;99.90;;;;;;5074095;28;20229;-65
2021/12/19 01:34:40;;;;;;;12.65;3.35;;;6.60;99.90;;;;;;5073201;28;20041;-65
2021/12/19 01:37:06;;;;;;;25.30;5.07;;;6.50;99.90;;;;;;5082539;28;20435;-65
2021/12/19 01:39:32;;;;;;;8.95;3.63;;;6.60;99.90;;;;;;5074601;28;20047;-66
2021/12/19 01:41:58;;;;;;;8.13;3.40;;;6.50;99.90;;;;;;5071293;28;20025;-66
2021/12/19 01:44:25;;;;;;;7.70;3.40;;;6.60;99.90;;;;;;5068313;28;20028;-66
2021/12/19 01:46:52;;;;;;;12.45;4.25;;;6.60;99.90;;;;;;5068327;28;20037;-66
2021/12/19 01:49:19;;;;;;;10.73;4.20;;;6.60;99.90;;;;;;5066704;28;20039;-66
2021/12/19 01:51:45;;;;;;;14.38;4.13;;;6.60;99.90;;;;;;5072600;28;20080;-66
2021/12/19 01:54:11;;;;;;;9.98;3.70;;;6.60;99.90;;;;;;5069375;28;20521;-66
2021/12/19 01:56:38;;;;;;;11.20;3.22;;;6.60;99.90;;;;;;5071792;28;20053;-66
2021/12/19 01:59:06;;;;;;;8.07;3.30;;;6.60;99.90;;;;;;5072638;28;20020;-66
2021/12/19 02:01:40;;;;;;;10.68;4.03;;;6.60;99.90;;;;;;5075222;28;20080;-66
2021/12/19 02:04:06;;;;;;;9.70;4.32;;;6.60;99.90;;;;;;5082494;28;20020;-66
2021/12/19 02:06:32;;;;;;;10.88;3.47;;;6.60;99.90;;;;;;5079795;28;20036;-66
2021/12/19 02:09:03;;;;;;;10.30;3.67;;;6.60;99.90;;;;;;5080115;28;20515;-65
2021/12/19 02:11:29;;;;;;;11.30;3.45;;;6.60;99.90;;;;;;5081897;28;20358;-66
2021/12/19 02:13:55;;;;;;;8.23;2.88;;;6.50;99.90;;;;;;5074696;28;20021;-65
2021/12/19 02:16:20;;;;;;;9.13;2.97;;;6.50;99.90;;;;;;5070673;28;20104;-65
2021/12/19 02:18:46;;;;;;;7.10;2.63;;;6.50;99.90;;;;;;5078058;28;20119;-66
2021/12/19 02:21:12;;;;;;;15.07;3.50;;;6.50;99.90;;;;;;5079809;28;20508;-66
2021/12/19 02:23:37;;;;;;;8.32;3.40;;;6.50;99.90;;;;;;5076449;28;20118;-66
2021/12/19 02:26:03;;;;;;;6.78;3.30;;;6.50;99.90;;;;;;5079415;28;20020;-65
2021/12/19 02:28:28;;;;;;;12.90;3.63;;;6.50;99.90;;;;;;5080728;28;20028;-65
2021/12/19 02:30:54;;;;;;;11.57;4.20;;;6.50;99.90;;;;;;5083030;28;20376;-66
2021/12/19 02:33:24;;;;;;;5.70;2.78;;;6.40;99.90;;;;;;5082039;28;20028;-65
2021/12/19 02:36:23;;;;;;;16.73;4.18;;;6.50;99.90;;;;;;5075907;28;20031;-66
2021/12/19 02:50:20;;;;;;;6.80;2.72;;;6.50;99.90;;;;;;5082161;28;20491;-65
2021/12/19 02:52:47;;;;;;;12.82;3.70;;;6.50;99.90;;;;;;5074191;28;20161;-66
2021/12/19 02:55:16;;;;;;;11.68;3.08;;;6.50;99.90;;;;;;5065292;28;20488;-65
2021/12/19 02:57:42;;;;;;;10.35;3.53;;;6.50;99.90;;;;;;5075385;28;20108;-65
2021/12/19 03:00:10;;;;;;;15.00;4.53;;;6.50;99.90;;;;;;5077442;28;20131;-66
2021/12/19 03:02:36;;;;;;;14.02;5.03;;;6.40;99.90;;;;;;5084393;28;20533;-66
2021/12/19 03:05:03;;;;;;;5.57;2.45;;;6.40;99.90;;;;;;5072974;28;20142;-66
2021/12/19 03:07:30;;;;;;;15.85;5.22;;;6.50;99.90;;;;;;5079142;28;20495;-65
2021/12/19 03:20:22;;;;;;;17.67;4.72;;;6.50;99.90;;;;;;5079249;28;20036;-66
2021/12/19 03:22:48;;;;;;;10.90;3.53;;;6.40;99.90;;;;;;5073858;28;20037;-66
2021/12/19 03:25:13;;;;;;;20.92;4.63;;;6.50;99.90;;;;;;5075824;28;20104;-66
2021/12/19 03:27:39;;;;;;;15.90;5.18;;;6.50;99.90;;;;;;5075224;28;20039;-66
2021/12/19 03:30:06;;;;;;;8.68;2.65;;;6.40;99.90;;;;;;5081033;28;20084;-66
2021/12/19 03:32:32;;;;;;;2.53;1.45;;;6.40;99.90;;;;;;5078233;28;20017;-65
2021/12/19 03:34:57;;;;;;;7.15;2.45;;;6.30;99.90;;;;;;5077277;28;20035;-65
2021/12/19 03:37:23;;;;;;;5.18;1.65;;;6.20;99.90;;;;;;5083354;28;20425;-66
2021/12/19 03:39:56;;;;;;;4.68;1.52;;;6.20;99.90;;;;;;5073690;28;20077;-66
2021/12/19 03:42:25;;;;;;;3.90;1.40;;;6.10;99.90;;;;;;5082601;28;20078;-66
2021/12/19 03:44:51;;;;;;;3.92;1.80;;;6.10;99.90;;;;;;5077814;28;20173;-66
2021/12/19 03:47:16;;;;;;;8.30;1.90;;;6.10;99.90;;;;;;5081915;28;20051;-66
2021/12/19 03:49:42;;;;;;;4.32;2.17;;;6.10;99.90;;;;;;5079715;28;20472;-66
2021/12/19 03:52:08;;;;;;;2.08;1.13;;;6.00;99.90;;;;;;5078318;28;20016;-65
2021/12/19 03:54:33;;;;;;;1.25;0.95;;;6.00;99.90;;;;;;5078047;28;20025;-64
2021/12/19 03:56:59;;;;;;;2.05;1.00;;;6.00;99.90;;;;;;5076621;28;20017;-65
2021/12/19 03:59:30;;;;;;;2.85;1.17;;;6.00;99.90;;;;;;5079867;28;20464;-64
2021/12/19 04:01:56;;;;;;;3.03;1.42;;;6.00;99.90;;;;;;5077999;28;20375;-64
2021/12/19 04:04:21;;;;;;;5.22;1.92;;;6.00;99.90;;;;;;5081259;28;20864;-65
2021/12/19 04:06:47;;;;;;;6.80;1.48;;;6.00;99.90;;;;;;5077809;28;20021;-65
2021/12/19 04:09:13;;;;;;;4.82;1.50;;;6.00;99.90;;;;;;5072455;28;20091;-65
2021/12/19 04:11:39;;;;;;;1.95;0.85;;;5.90;99.90;;;;;;5069252;28;20059;-65
2021/12/19 04:14:05;;;;;;;0.80;0.80;;;6.00;99.90;;;;;;5077434;28;20078;-65
2021/12/19 04:16:30;;;;;;;2.83;1.30;;;6.00;99.90;;;;;;5073854;28;20415;-65
2021/12/19 04:18:56;;;;;;;4.28;1.75;;;5.90;99.90;;;;;;5081195;28;20089;-65
2021/12/19 04:21:22;;;;;;;4.28;1.33;;;5.90;99.90;;;;;;5080822;28;20090;-65
2021/12/19 04:23:48;;;;;;;2.05;1.05;;;6.00;99.90;;;;;;5080106;28;20034;-65
2021/12/19 04:26:13;;;;;;;2.40;1.33;;;5.90;99.90;;;;;;5079606;28;20096;-65
2021/12/19 04:28:39;;;;;;;6.50;2.30;;;5.90;99.90;;;;;;5085341;28;20016;-65
2021/12/19 04:31:05;;;;;;;3.65;1.45;;;5.80;99.90;;;;;;5080115;28;20021;-65
2021/12/19 04:33:32;;;;;;;6.07;1.80;;;5.70;99.90;;;;;;5073879;28;20025;-65
2021/12/19 04:36:01;;;;;;;3.20;1.33;;;5.70;99.90;;;;;;5080644;28;20072;-65
2021/12/19 04:58:00;;;;;;;2.53;1.27;;;5.70;99.90;;;;;;5082613;28;20024;-65
2021/12/19 05:00:38;;;;;;;8.20;2.15;;;5.70;99.90;;;;;;5080384;28;20513;-65
2021/12/19 05:03:14;;;;;;;4.15;1.70;;;5.80;99.90;;;;;;5075857;28;20051;-65
2021/12/19 05:05:54;;;;;;;5.43;1.90;;;5.70;99.90;;;;;;5077940;28;20024;-65
2021/12/19 05:16:33;;;;;;;6.05;2.53;;;5.90;99.90;;;;;;5073161;28;20020;-65
2021/12/19 05:19:05;;;;;;;3.05;1.73;;;5.80;99.90;;;;;;5075487;28;20036;-65
2021/12/19 05:21:33;;;;;;;5.00;2.28;;;5.70;99.90;;;;;;5080518;28;20490;-65
2021/12/19 05:26:25;;;;;;;7.55;2.50;;;5.70;99.90;;;;;;5078518;28;20025;-65
2021/12/19 05:28:52;;;;;;;4.22;1.60;;;5.70;99.90;;;;;;5076170;28;20048;-65
2021/12/19 05:31:19;;;;;;;3.65;1.60;;;5.70;99.90;;;;;;5076518;28;20017;-65
2021/12/19 05:33:46;;;;;;;7.15;2.47;;;5.70;99.90;;;;;;5073024;28;20032;-65
2021/12/19 05:46:41;;;;;;;8.32;1.75;;;5.70;99.90;;;;;;5077703;28;20024;-65
2021/12/19 05:49:08;;;;;;;8.27;2.72;;;5.60;99.90;;;;;;5075010;28;20591;-65
2021/12/19 05:51:38;;;;;;;7.63;2.08;;;5.60;99.90;;;;;;5075441;28;20020;-65
2021/12/19 05:54:05;;;;;;;24.00;2.20;;;5.70;99.90;;;;;;5075055;28;20514;-65
2021/12/19 05:56:31;;;;;;;3.53;1.23;;;5.70;99.90;;;;;;5071740;28;20111;-65
2021/12/19 05:58:57;;;;;;;3.42;1.83;;;5.70;99.90;;;;;;5077876;28;20345;-66
2021/12/19 06:01:23;;;;;;;5.05;2.45;;;5.70;99.90;;;;;;5069557;28;20036;-65
2021/12/19 06:03:48;;;;;;;9.57;2.83;;;5.80;99.90;;;;;;5075751;28;20108;-65
2021/12/19 06:06:14;;;;;;;9.40;2.15;;;5.80;99.90;;;;;;5076092;28;20090;-65
2021/12/19 06:08:40;;;;;;;12.55;1.92;;;5.70;99.90;;;;;;5070840;28;20038;-65
2021/12/19 06:11:05;;;;;;;7.75;2.35;;;5.80;99.90;;;;;;5068890;28;20114;-65
2021/12/19 06:13:31;;;;;;;2.90;2.13;;;5.70;99.90;;;;;;5071987;28;20361;-65
2021/12/19 06:15:57;;;;;;;7.95;3.25;;;5.70;99.90;;;;;;5072004;28;20087;-65
2021/12/19 06:18:23;;;;;;;7.47;2.42;;;5.70;99.90;;;;;;5077263;28;20056;-64
2021/12/19 06:20:49;;;;;;;8.85;2.78;;;5.70;99.90;;;;;;5072102;28;20021;-64
2021/12/19 06:23:18;;;;;;;8.88;2.42;;;5.70;99.90;;;;;;5082723;28;20115;-65
2021/12/19 06:25:46;;;;;;;5.00;2.20;;;5.70;99.90;;;;;;5071940;28;20039;-64
2021/12/19 06:28:13;;;;;;;7.32;2.33;;;5.70;99.90;;;;;;5083779;28;20037;-64
2021/12/19 06:30:42;;;;;;;5.93;1.15;;;5.70;99.90;;;;;;5074418;28;20069;-64
2021/12/19 06:33:08;;;;;;;2.85;1.45;;;6.40;99.90;;;;;;5073621;28;20153;-64
2021/12/19 06:35:34;;;;;;;2.55;1.38;;;5.70;99.90;;;;;;5074140;28;20083;-64
2021/12/19 06:37:59;;;;;;;2.60;1.55;;;5.80;99.90;;;;;;5074831;28;20024;-64
2021/12/19 06:40:26;;;;;;;9.88;2.75;;;5.80;99.90;;;;;;5071722;28;20501;-64
2021/12/19 06:42:51;;;;;;;4.43;2.38;;;5.70;99.90;;;;;;5073764;28;20494;-64
2021/12/19 06:45:18;;;;;;;10.18;2.35;;;5.70;99.90;;;;;;5074484;28;20029;-64
2021/12/19 06:47:44;;;;;;;3.38;1.38;;;5.80;99.90;;;;;;5075966;28;20024;-64
2021/12/19 06:50:12;;;;;;;7.00;2.60;;;5.80;99.90;;;;;;5077297;28;20047;-64
2021/12/19 06:52:38;;;;;;;4.72;2.70;;;5.80;99.90;;;;;;5075455;28;20035;-64
2021/12/19 06:55:04;;;;;;;5.60;2.72;;;5.80;99.90;;;;;;5076367;28;20028;-64
2021/12/19 06:57:30;;;;;;;8.85;2.92;;;5.80;99.90;;;;;;5066900;28;20456;-64
2021/12/19 06:59:55;;;;;;;9.10;3.13;;;5.70;99.90;;;;;;5071027;28;20021;-64
2021/12/19 07:02:21;;;;;;;8.05;3.00;;;5.80;99.90;;;;;;5075563;28;20034;-64
2021/12/19 07:04:46;;;;;;;1.90;1.55;;;5.80;99.90;;;;;;5074818;28;21148;-64
2021/12/19 07:07:13;;;;;;;6.65;1.67;;;5.80;99.90;;;;;;5075095;28;20383;-63
2021/12/19 07:09:39;;;;;;;2.67;1.73;;;5.70;99.90;;;;;;5077773;28;20031;-62
2021/12/19 07:12:06;;;;;;;6.53;2.70;;;5.70;99.90;;;;;;5077731;28;20024;-62
2021/12/19 07:14:32;;;;;;;2.22;1.25;;;5.70;99.90;;;;;;5070098;28;20040;-62
2021/12/19 07:16:58;;;;;;;9.70;3.45;;;5.70;99.90;;;;;;5073701;28;20021;-62
2021/12/19 07:19:24;;;;;;;7.82;3.33;;;5.70;99.90;;;;;;5069153;28;20169;-62
2021/12/19 07:21:50;;;;;;;4.88;2.05;;;5.60;99.90;;;;;;5071937;28;20016;-62
2021/12/19 07:24:16;;;;;;;6.25;1.90;;;5.70;99.90;;;;;;5080857;28;20127;-62
2021/12/19 07:26:42;;;;;;;5.75;2.53;;;5.70;99.90;;;;;;5068867;28;20475;-62
2021/12/19 07:29:08;;;;;;;9.02;2.15;;;5.70;99.90;;;;;;5068169;28;20032;-62
2021/12/19 07:31:37;;;;;;;3.83;1.63;;;5.70;99.90;;;;;;5077572;28;20024;-62
2021/12/19 07:34:03;;;;;;;8.30;2.03;;;5.60;99.90;;;;;;5075748;28;20023;-62
2021/12/19 07:36:36;;;;;;;6.57;2.40;;;5.70;99.90;;;;;;5081013;28;20388;-62
2021/12/19 07:39:09;;;;;;;3.47;1.67;;;5.70;99.90;;;;;;5077565;28;20060;-63
2021/12/19 07:41:34;;;;;;;5.53;2.13;;;5.70;99.90;;;;;;5071306;28;20090;-63
2021/12/19 07:44:00;;;;;;;5.40;2.50;;;5.70;99.90;;;;;;5074193;28;20036;-63
2021/12/19 07:46:26;;;;;;;4.93;2.20;;;5.70;99.90;;;;;;5078357;28;20460;-63
2021/12/19 07:48:51;;;;;;;10.27;3.33;;;5.80;99.90;;;;;;5075249;28;20067;-63
2021/12/19 07:51:17;;;;;;;6.97;2.05;;;5.80;99.90;;;;;;5079837;28;20120;-63
2021/12/19 07:53:43;;;;;;;3.38;1.48;;;5.80;99.90;;;;;;5076737;28;20078;-63
2021/12/19 07:56:08;;;;;;;3.15;1.80;;;5.80;99.90;;;;;;5077665;28;20027;-63
2021/12/19 07:58:34;;;;;;;8.18;2.65;;;5.80;99.90;;;;;;5070554;28;20047;-63
2021/12/19 08:01:00;;;;;;;1.60;1.05;;;5.80;99.90;;;;;;5078417;28;20130;-63
2021/12/19 08:03:25;;;;;;;10.63;3.00;;;5.80;99.90;;;;;;5071453;28;20044;-63
2021/12/19 08:05:51;;;;;;;3.72;2.33;;;5.80;99.90;;;;;;5077957;28;20043;-63
2021/12/19 08:08:22;;;;;;;4.13;2.15;;;5.80;99.90;;;;;;5076987;28;20024;-63
2021/12/19 08:13:13;;;;;;;5.88;2.60;;;5.80;99.90;;;;;;5068074;28;20021;-63
2021/12/19 08:15:39;;;;;;;5.82;2.33;;;5.80;99.90;;;;;;5079322;28;20032;-63
2021/12/19 08:18:06;;;;;;;2.58;1.35;;;5.90;99.90;;;;;;5077149;28;20028;-63
2021/12/19 08:20:32;;;;;;;5.15;1.52;;;5.90;99.90;;;;;;5076786;28;20024;-63
2021/12/19 08:22:58;;;;;;;2.20;1.48;;;5.90;99.90;;;;;;5072343;28;20085;-63
2021/12/19 08:25:26;;;;;;;4.03;1.67;;;5.90;99.90;;;;;;5067189;28;20036;-63
2021/12/19 08:27:52;;;;;;;7.95;3.38;;;5.90;99.90;;;;;;5068376;28;20100;-63
2021/12/19 08:30:18;;;;;;;5.30;2.42;;;5.90;99.90;;;;;;5066521;28;20120;-63
2021/12/19 08:32:44;;;;;;;4.78;2.53;;;6.00;99.90;;;;;;5072437;28;20466;-63
2021/12/19 08:35:11;;;;;;;13.15;3.58;;;6.10;99.90;;;;;;5082822;28;20155;-64
2021/12/19 08:37:37;;;;;;;6.90;3.13;;;6.00;99.90;;;;;;5074823;28;20028;-64
2021/12/19 08:40:04;;;;;;;5.18;2.08;;;6.00;99.90;;;;;;5077281;28;20024;-64
2021/12/19 08:42:32;;;;;;;8.65;3.15;;;6.10;99.90;;;;;;5070818;28;20085;-64
2021/12/19 08:44:58;;;;;;;6.90;3.33;;;6.10;99.90;;;;;;5077714;28;20017;-64
2021/12/19 08:47:23;;;;;;;13.82;3.38;;;6.10;99.90;;;;;;5075527;28;20080;-64
2021/12/19 08:49:49;;;;;;;5.45;2.30;;;6.10;99.90;;;;;;5084322;28;20029;-64
2021/12/19 08:52:15;;;;;;;5.22;2.50;;;6.10;99.90;;;;;;5080176;28;20031;-64
2021/12/19 08:54:41;;;;;;;8.90;4.35;;;6.00;99.90;;;;;;5075032;28;20025;-64
2021/12/19 08:57:06;;;;;;;9.82;2.85;;;6.10;99.90;;;;;;5075749;28;20024;-63
2021/12/19 08:59:32;;;;;;;7.75;3.20;;;6.10;99.90;;;;;;5077497;28;20391;-64
2021/12/19 09:02:01;;;;;;;3.72;1.77;;;6.10;99.90;;;;;;5070961;28;20021;-64
2021/12/19 09:04:27;;;;;;;6.63;2.67;;;6.10;99.90;;;;;;5078376;28;20020;-64
2021/12/19 09:06:56;;;;;;;3.05;1.52;;;6.10;99.90;;;;;;5078424;28;20024;-63
2021/12/19 09:09:21;;;;;;;4.68;2.13;;;6.10;99.90;;;;;;5082525;28;20012;-63
2021/12/19 09:11:47;;;;;;;5.35;2.33;;;6.10;99.90;;;;;;5074222;28;20023;-63
2021/12/19 09:14:13;;;;;;;5.20;1.80;;;6.20;99.90;;;;;;5072054;28;20310;-63
2021/12/19 09:16:38;;;;;;;4.63;2.35;;;6.20;99.90;;;;;;5073382;28;20063;-63
2021/12/19 09:19:04;;;;;;;4.47;1.85;;;6.10;99.90;;;;;;5077726;28;20041;-63
2021/12/19 09:21:29;;;;;;;7.45;3.30;;;6.20;99.90;;;;;;5085934;28;20043;-63
2021/12/19 09:23:55;;;;;;;2.15;1.42;;;6.30;99.90;;;;;;5077226;28;20028;-63
2021/12/19 09:26:21;;;;;;;5.05;2.20;;;6.30;99.90;;;;;;5081767;28;20044;-63
2021/12/19 09:28:46;;;;;;;9.40;3.20;;;6.30;99.90;;;;;;5080170;28;20016;-63
2021/12/19 09:31:12;;;;;;;6.35;2.53;;;6.30;99.90;;;;;;5078921;28;20021;-63
2021/12/19 09:33:37;;;;;;;2.60;1.75;;;6.40;99.90;;;;;;5072669;28;20025;-63
2021/12/19 09:36:03;;;;;;;4.88;1.73;;;6.40;99.90;;;;;;5078361;28;20036;-63
2021/12/19 09:38:29;;;;;;;5.78;1.83;;;6.40;99.90;;;;;;5074198;28;20089;-63
2021/12/19 09:41:00;;;;;;;2.22;1.38;;;6.30;99.90;;;;;;5085170;28;20096;-63
2021/12/19 09:43:41;;;;;;;4.43;1.58;;;6.40;99.90;;;;;;5080699;28;20024;-64
2021/12/19 09:46:10;;;;;;;8.05;2.35;;;6.30;99.90;;;;;;5084947;28;20037;-64
2021/12/19 09:48:38;;;;;;;12.73;2.45;;;6.30;99.90;;;;;;5080084;28;20040;-64
2021/12/19 09:51:04;;;;;;;7.80;2.40;;;6.40;99.90;;;;;;5079982;28;20082;-64
2021/12/19 09:53:29;;;;;;;7.10;2.92;;;6.40;99.90;;;;;;5080815;28;20016;-64
2021/12/19 09:55:55;;;;;;;6.10;1.80;;;6.40;99.90;;;;;;5081335;28;20483;-64
2021/12/19 09:58:20;;;;;;;4.15;1.77;;;6.40;99.90;;;;;;5083574;28;20408;-64
2021/12/19 10:00:46;;;;;;;5.20;2.03;;;6.40;99.90;;;;;;5087032;28;20012;-64
2021/12/19 10:03:12;;;;;;;3.40;1.35;;;6.40;99.90;;;;;;5081662;28;20480;-64
2021/12/19 10:05:37;;;;;;;6.03;2.03;;;6.40;99.90;;;;;;5079724;28;20025;-64
2021/12/19 10:08:04;;;;;;;3.83;1.70;;;6.40;99.90;;;;;;5078242;28;20025;-64
2021/12/19 10:11:14;;;;;;;2.55;1.17;;;6.40;99.90;;;;;;5071227;28;20037;-64
2021/12/19 10:13:36;;;;;;;4.47;1.52;;;6.40;99.90;;;;;;5080280;28;20044;-64
2021/12/19 10:16:26;;;;;;;5.67;1.53;;;6.50;99.90;;;;;;5082243;28;20024;-64
2021/12/19 10:18:54;;;;;;;1.90;1.30;;;6.50;99.90;;;;;;5073304;28;20282;-64
2021/12/19 10:21:20;;;;;;;1.25;0.98;;;6.40;99.90;;;;;;5072199;28;20063;-64
2021/12/19 10:23:46;;;;;;;5.00;1.88;;;6.40;99.90;;;;;;5074039;28;20137;-64
2021/12/19 10:26:12;;;;;;;4.55;1.67;;;6.30;99.90;;;;;;5072755;28;20032;-63
2021/12/19 10:28:54;;;;;;;2.13;1.20;;;6.40;99.90;;;;;;5074436;28;20027;-64
2021/12/19 10:31:21;;;;;;;1.58;1.05;;;6.30;99.90;;;;;;5075994;28;20464;-64
2021/12/19 10:33:48;;;;;;;1.67;1.05;;;6.30;99.90;;;;;;5079135;28;20021;-63
2021/12/19 10:36:14;;;;;;;1.83;0.93;;;6.40;99.90;;;;;;5078065;28;20487;-64
2021/12/19 10:39:00;;;;;;;2.78;1.30;;;6.30;99.90;;;;;;5086657;28;20032;-64
2021/12/19 10:41:33;;;;;;;1.45;0.90;;;6.30;99.90;;;;;;5079412;28;20032;-63
2021/12/19 10:44:12;;;;;;;2.22;1.00;;;6.30;99.90;;;;;;5089586;28;20073;-64
2021/12/19 10:46:40;;;;;;;1.23;0.80;;;6.40;99.90;;;;;;5074368;28;20027;-64
2021/12/19 10:49:22;;;;;;;1.65;0.90;;;6.40;99.90;;;;;;5074974;28;20017;-63
2021/12/19 10:51:51;;;;;;;0.63;0.63;;;6.40;99.90;;;;;;5085943;28;20074;-63
2021/12/19 10:54:17;;;;;;;0.60;0.60;;;6.40;99.90;;;;;;5075070;28;20037;-63
2021/12/19 10:56:43;;;;;;;3.13;1.25;;;6.40;99.90;;;;;;5077501;28;20020;-63
2021/12/19 10:59:16;;;;;;;2.55;0.90;;;6.50;99.90;;;;;;5073285;28;20429;-63
2021/12/19 11:01:52;;;;;;;1.65;0.90;;;6.50;99.90;;;;;;5076169;28;20087;-63
2021/12/19 11:04:22;;;;;;;1.27;0.82;;;6.60;99.90;;;;;;5073810;28;20116;-64
2021/12/19 11:06:49;;;;;;;;;;;6.60;99.90;;;;;;5091269;28;20161;-63
2021/12/19 11:09:24;;;;;;;1.70;0.98;;;6.60;99.90;;;;;;5079338;28;20003;-64
2021/12/19 11:11:50;;;;;;;6.13;1.83;;;6.60;99.90;;;;;;5085972;28;20103;-64
2021/12/19 11:14:30;;;;;;;1.42;1.00;;;6.50;99.90;;;;;;5078394;28;20090;-64
2021/12/19 11:17:09;;;;;;;0.65;0.65;;;6.60;99.90;;;;;;5077791;28;20649;-63
2021/12/19 11:19:35;;;;;;;1.23;0.90;;;6.50;99.90;;;;;;5069452;28;20052;-63
2021/12/19 11:22:01;;;;;;;1.80;1.17;;;6.50;99.90;;;;;;5072164;28;20122;-64
2021/12/19 11:24:27;;;;;;;3.55;1.33;;;6.60;99.90;;;;;;5070784;28;20428;-63
2021/12/19 11:26:58;;;;;;;1.63;0.88;;;6.50;99.90;;;;;;5071134;28;20028;-63
2021/12/19 11:29:25;;;;;;;1.75;1.00;;;6.50;99.90;;;;;;5075105;28;20029;-63
2021/12/19 11:31:58;;;;;;;1.63;1.10;;;6.50;99.90;;;;;;5077343;28;20024;-63
2021/12/19 11:34:35;;;;;;;3.35;1.00;;;6.40;99.90;;;;;;5074990;28;20616;-64
2021/12/19 11:37:07;;;;;;;3.80;1.27;;;6.40;99.90;;;;;;5076956;28;20028;-63
2021/12/19 11:39:40;;;;;;;2.33;1.17;;;6.40;99.90;;;;;;5068354;28;20024;-63
2021/12/19 11:42:18;;;;;;;1.95;1.05;;;6.40;99.90;;;;;;5081578;28;20404;-64
2021/12/19 11:45:13;;;;;;;3.95;1.10;;;6.60;99.90;;;;;;5076471;28;20063;-63
2021/12/19 11:47:49;;;;;;;2.25;1.00;;;6.60;99.90;;;;;;5072782;28;20037;-64
2021/12/19 11:50:28;;;;;;;5.75;1.42;;;6.60;99.90;;;;;;5081975;28;20099;-64
2021/12/19 11:52:57;;;;;;;1.80;0.85;;;6.50;99.90;;;;;;5076484;28;20024;-63
2021/12/19 11:55:25;;;;;;;2.10;1.20;;;6.50;99.90;;;;;;5076931;28;20059;-63
2021/12/19 11:58:46;;;;;;;3.60;1.60;;;6.40;99.90;;;;;;5077165;28;20082;-63
2021/12/19 12:01:27;;;;;;;1.05;0.88;;;6.50;99.90;;;;;;5055170;28;20039;-64
2021/12/19 12:04:12;;;;;;;4.40;1.55;;;6.60;99.90;;;;;;5073522;28;20033;-64
2021/12/19 12:06:54;;;;;;;3.58;1.63;;;6.70;99.90;;;;;;5084687;28;20054;-62
2021/12/19 12:09:29;;;;;;;2.60;1.38;;;6.70;99.90;;;;;;5072733;28;20013;-64
2021/12/19 12:12:04;;;;;;;1.65;0.93;;;6.70;99.90;;;;;;5079687;28;20028;-63
2021/12/19 12:14:35;;;;;;;1.75;1.15;;;6.70;99.90;;;;;;5070889;28;20021;-63
2021/12/19 12:17:07;;;;;;;3.00;1.48;;;6.70;99.90;;;;;;5068323;28;20033;-64
2021/12/19 12:19:51;;;;;;;2.05;1.05;;;6.70;99.90;;;;;;5069016;28;20400;-64
2021/12/19 12:25:15;;;;;;;5.13;1.50;;;6.80;99.90;;;;;;5071876;28;20033;-64
2021/12/19 12:28:04;;;;;;;1.05;0.85;;;6.80;99.90;;;;;;5074916;28;20366;-64
2021/12/19 12:30:35;;;;;;;1.73;0.95;;;6.90;99.90;;;;;;5075232;28;20020;-64
2021/12/19 12:33:03;;;;;;;1.70;1.00;;;6.80;99.90;;;;;;5076338;28;20029;-64
2021/12/19 12:35:37;;;;;;;4.10;1.10;;;6.90;99.90;;;;;;5075233;28;20426;-64
2021/12/19 12:38:04;;;;;;;0.75;0.70;;;6.90;99.90;;;;;;5089295;28;20062;-64
2021/12/19 12:40:56;;;;;;;2.38;1.23;;;6.80;99.90;;;;;;5078712;28;20114;-63
2021/12/19 12:43:33;;;;;;;2.33;1.35;;;6.70;99.90;;;;;;5083291;28;20032;-64
2021/12/19 12:46:03;;;;;;;2.35;1.23;;;6.70;99.90;;;;;;5077014;28;20540;-63
2021/12/19 12:48:39;;;;;;;1.77;0.93;;;6.60;99.90;;;;;;5080969;28;20024;-64
2021/12/19 12:51:10;;;;;;;3.15;1.48;;;6.60;99.90;;;;;;5088014;28;20012;-64
2021/12/19 12:53:49;;;;;;;2.25;1.15;;;6.70;99.90;;;;;;5083218;28;20021;-64
2021/12/19 12:56:21;;;;;;;1.75;1.00;;;6.70;99.90;;;;;;5075757;28;20021;-64
2021/12/19 12:58:55;;;;;;;1.42;0.95;;;6.50;99.90;;;;;;5084539;28;20032;-63
2021/12/19 13:01:23;;;;;;;2.50;1.35;;;6.60;99.90;;;;;;5091018;28;20032;-63
2021/12/19 13:03:56;;;;;;;1.20;0.82;;;6.60;99.90;;;;;;5078875;28;20032;-63
2021/12/19 13:06:42;;;;;;;1.30;0.85;;;6.60;99.90;;;;;;5078192;28;20023;-63
2021/12/19 13:09:08;;;;;;;3.60;1.42;;;6.60;99.90;;;;;;5077712;28;20099;-63
2021/12/19 13:11:33;;;;;;;1.85;1.10;;;6.50;99.90;;;;;;5077522;28;20539;-63
2021/12/19 13:14:29;;;;;;;1.40;1.00;;;6.60;99.90;;;;;;5079832;28;20115;-63
2021/12/19 13:17:03;;;;;;;2.50;1.42;;;6.60;99.90;;;;;;5083884;28;20036;-63
2021/12/19 13:20:14;;;;;;;3.60;1.67;;;6.60;99.90;;;;;;5072394;28;20044;-63
2021/12/19 13:22:45;;;;;;;4.20;1.30;;;6.50;99.90;;;;;;5079132;28;20502;-62
2021/12/19 13:25:12;;;;;;;5.57;1.48;;;6.50;99.90;;;;;;5080270;28;20016;-62
2021/12/19 13:27:43;;;;;;;4.53;1.58;;;6.50;99.90;;;;;;5081240;28;20024;-63
2021/12/19 13:30:18;;;;;;;1.42;1.05;;;6.50;99.90;;;;;;5081580;28;20587;-63
2021/12/19 13:32:53;;;;;;;3.42;1.30;;;6.50;99.90;;;;;;5073683;28;20052;-63
2021/12/19 13:35:18;;;;;;;3.53;1.02;;;6.40;99.90;;;;;;5074930;28;20099;-62
2021/12/19 13:37:49;;;;;;;1.13;0.85;;;6.40;99.90;;;;;;5074547;28;20108;-63
2021/12/19 13:40:16;;;;;;;4.72;2.08;;;6.40;99.90;;;;;;5073087;28;20036;-62
2021/12/19 13:42:46;;;;;;;4.90;1.60;;;6.40;99.90;;;;;;5079843;28;20052;-62
2021/12/19 13:45:27;;;;;;;3.25;1.35;;;6.40;99.90;;;;;;5073819;28;20100;-63
2021/12/19 13:47:54;;;;;;;4.22;1.63;;;6.30;99.90;;;;;;5076636;28;20058;-62
2021/12/19 13:50:21;;;;;;;3.83;1.50;;;6.40;99.90;;;;;;5074724;28;20027;-62
2021/12/19 13:52:47;;;;;;;2.35;1.48;;;6.40;99.90;;;;;;5079007;28;20391;-62
2021/12/19 13:55:14;;;;;;;2.90;1.00;;;6.40;99.90;;;;;;5076165;28;20104;-62
2021/12/19 13:57:41;;;;;;;2.28;1.25;;;6.30;99.90;;;;;;5071273;28;20040;-63
2021/12/19 14:00:10;;;;;;;3.50;1.58;;;6.30;99.90;;;;;;5073820;28;20108;-63
2021/12/19 14:02:38;;;;;;;3.17;1.10;;;6.40;99.90;;;;;;5076854;28;20042;-63
2021/12/19 14:05:24;;;;;;;2.22;1.02;;;6.40;99.90;;;;;;5073355;28;20036;-62
2021/12/19 14:07:50;;;;;;;2.90;1.27;;;6.40;99.90;;;;;;5078987;28;20480;-63
2021/12/19 14:10:23;;;;;;;4.75;1.58;;;6.50;99.90;;;;;;5072941;28;20029;-63
2021/12/19 14:13:14;;;;;;;2.40;1.42;;;6.40;99.90;;;;;;5083156;28;20027;-63
2021/12/19 14:15:37;;;;;;;2.30;1.30;;;6.50;99.90;;;;;;5075102;28;20044;-63
2021/12/19 14:18:25;;;;;;;2.30;1.42;;;6.40;99.90;;;;;;5079062;28;20016;-62